Terminal Aerodrome Forecast
Issued by NWS Greer, SC

Home | Current Version | Previous Version | Text Only | Print | Product List | Glossary On
Versions: 1 2 3 4 5 6 7 8 9 10 11 12 13 14 15 16 17 18 19 20 21 22 23
000
FTUS42 KGSP 161125
TAFGSP
TAF
KGSP 161125Z 1612/1712 00000KT P6SM SCT200
     FM161500 35003KT P6SM FEW050
     FM161800 23005KT P6SM VCSH SCT050 PROB30 1621/1701 4SM -TSRA
      BKN035CB
     FM170200 VRB02KT P6SM SCT060 BKN200
     FM170600 29002KT P6SM FEW060=

USA.gov is the U.S. government's official web portal to all federal, state and local government web resources and services.